Time;durP1;ratioP1;P1;durP2;ratioP2;P2;SDS_P1;SDS_P2;PMS_P1;PMS_P2;Temp;Humidity;BMP_temperature;BMP_pressure;BME280_temperature;BME280_humidity;BME280_pressure;Samples;Min_cycle;Max_cycle;Signal;HPM_P1;HPM_P2
2022/08/31 00:06:17;;;;;;;3.83;1.30;;;17.40;95.70;;;;;;5029517;28;19916;-75
2022/08/31 00:08:43;;;;;;;4.95;1.60;;;17.40;95.80;;;;;;5029525;28;20037;-75
2022/08/31 00:11:12;;;;;;;2.65;1.67;;;17.40;95.90;;;;;;5027415;28;20030;-75
2022/08/31 00:13:42;;;;;;;2.33;1.45;;;17.30;95.80;;;;;;5029091;28;20421;-75
2022/08/31 00:16:10;;;;;;;2.00;1.42;;;17.40;95.40;;;;;;5022650;28;20524;-75
2022/08/31 00:18:35;;;;;;;2.83;1.60;;;17.30;96.30;;;;;;5028855;28;20025;-74
2022/08/31 00:21:01;;;;;;;1.70;1.40;;;17.20;96.10;;;;;;5029427;28;20497;-74
2022/08/31 00:23:27;;;;;;;1.85;1.30;;;17.70;96.40;;;;;;5028694;28;20383;-75
2022/08/31 00:25:52;;;;;;;3.92;2.00;;;17.30;96.10;;;;;;5029383;28;20411;-75
2022/08/31 00:28:18;;;;;;;3.00;1.58;;;17.30;96.20;;;;;;5026032;28;20095;-74
2022/08/31 00:30:45;;;;;;;2.00;1.80;;;17.30;96.40;;;;;;5029078;28;20039;-75
2022/08/31 00:33:12;;;;;;;1.60;1.50;;;17.20;96.50;;;;;;5028695;28;20108;-75
2022/08/31 00:35:42;;;;;;;1.63;1.40;;;17.20;96.50;;;;;;5028857;28;20021;-75
2022/08/31 00:38:09;;;;;;;4.97;2.15;;;17.10;96.60;;;;;;5029471;28;20097;-75
2022/08/31 00:40:35;;;;;;;3.55;1.83;;;18.50;97.10;;;;;;5029065;28;20075;-74
2022/08/31 00:43:01;;;;;;;1.92;1.33;;;17.10;96.50;;;;;;5029119;28;20029;-75
2022/08/31 00:45:27;;;;;;;3.00;1.55;;;17.00;96.50;;;;;;5028544;28;20088;-74
2022/08/31 00:47:52;;;;;;;2.75;2.17;;;17.10;96.60;;;;;;5029121;28;20040;-75
2022/08/31 00:50:19;;;;;;;3.47;2.00;;;17.00;96.70;;;;;;5028806;28;20474;-74
2022/08/31 00:52:49;;;;;;;2.30;1.40;;;17.00;96.80;;;;;;5029320;28;20079;-74
2022/08/31 00:55:19;;;;;;;3.85;1.75;;;17.00;97.00;;;;;;5028997;28;20029;-75
2022/08/31 00:57:48;;;;;;;2.58;1.67;;;17.00;96.90;;;;;;5027749;28;20025;-75
2022/08/31 01:00:18;;;;;;;4.10;1.60;;;17.00;97.20;;;;;;5028605;28;20025;-75
2022/08/31 01:02:44;;;;;;;4.72;1.60;;;17.50;97.30;;;;;;5028149;28;20021;-75
2022/08/31 01:05:11;;;;;;;2.97;1.60;;;16.90;96.90;;;;;;5027751;28;20482;-75
2022/08/31 01:07:37;;;;;;;2.22;1.45;;;16.80;97.10;;;;;;5031716;28;20048;-74
2022/08/31 01:10:05;;;;;;;1.95;1.45;;;16.90;97.20;;;;;;5033215;28;20033;-75
2022/08/31 01:12:31;;;;;;;4.05;1.85;;;16.80;97.00;;;;;;5032280;28;20104;-75
2022/08/31 01:14:58;;;;;;;3.65;1.35;;;16.80;97.10;;;;;;5032958;28;20060;-75
2022/08/31 01:17:24;;;;;;;3.08;1.48;;;16.70;97.30;;;;;;5028207;28;20021;-75
2022/08/31 01:20:14;;;;;;;3.22;1.85;;;16.70;97.20;;;;;;5032319;28;20026;-74
2022/08/31 01:22:59;;;;;;;2.05;1.40;;;16.60;97.00;;;;;;5030850;28;20447;-75
2022/08/31 01:25:24;;;;;;;2.42;1.75;;;16.70;97.90;;;;;;5031797;28;20386;-75
2022/08/31 01:27:50;;;;;;;1.73;1.50;;;16.60;97.30;;;;;;5031235;28;20053;-75
2022/08/31 01:30:24;;;;;;;3.25;1.70;;;16.50;97.40;;;;;;5029895;28;20065;-75
2022/08/31 01:32:50;;;;;;;4.60;1.80;;;16.60;97.90;;;;;;5031306;28;20159;-75
2022/08/31 01:35:15;;;;;;;4.85;1.40;;;16.50;97.40;;;;;;5030306;28;20530;-75
2022/08/31 01:37:41;;;;;;;3.38;1.55;;;16.60;97.40;;;;;;5030473;28;20505;-75
2022/08/31 01:40:08;;;;;;;4.63;2.35;;;16.60;97.50;;;;;;5028642;28;20355;-75
2022/08/31 01:42:33;;;;;;;1.77;1.45;;;16.50;97.20;;;;;;5030131;28;20021;-75
2022/08/31 01:44:59;;;;;;;3.17;1.50;;;16.40;97.40;;;;;;5030498;28;20029;-75
2022/08/31 01:47:24;;;;;;;2.97;1.55;;;16.50;97.50;;;;;;5030245;28;20032;-75
2022/08/31 01:49:50;;;;;;;3.97;1.50;;;16.40;97.40;;;;;;5030708;28;20042;-75
2022/08/31 01:52:15;;;;;;;3.05;1.67;;;17.50;97.80;;;;;;5030319;28;20037;-75
2022/08/31 01:54:41;;;;;;;3.28;1.77;;;16.40;97.50;;;;;;5030761;28;20375;-74
2022/08/31 01:57:06;;;;;;;3.15;1.60;;;16.30;97.50;;;;;;5029957;28;20034;-75
2022/08/31 01:59:32;;;;;;;1.88;1.67;;;16.30;97.50;;;;;;5029527;28;20068;-74
2022/08/31 02:01:58;;;;;;;1.95;1.35;;;16.30;97.40;;;;;;5030723;28;20017;-75
2022/08/31 02:04:26;;;;;;;2.90;1.60;;;16.30;97.50;;;;;;5030340;28;20021;-75
2022/08/31 02:06:54;;;;;;;3.47;1.70;;;16.40;97.70;;;;;;5030763;28;20490;-75
2022/08/31 02:09:21;;;;;;;2.03;1.60;;;16.20;97.60;;;;;;5029885;28;20094;-74
2022/08/31 02:11:46;;;;;;;1.45;1.20;;;16.10;97.60;;;;;;5029843;28;20045;-75
2022/08/31 02:14:12;;;;;;;2.42;1.40;;;16.10;97.80;;;;;;5029632;28;20126;-75
2022/08/31 02:16:38;;;;;;;3.25;1.60;;;16.10;97.60;;;;;;5025965;28;20022;-75
2022/08/31 02:19:05;;;;;;;1.33;1.10;;;16.20;97.70;;;;;;5029920;28;20022;-75
2022/08/31 02:21:31;;;;;;;1.48;1.38;;;16.10;97.50;;;;;;5029419;28;20504;-75
2022/08/31 02:23:57;;;;;;;1.77;1.20;;;16.00;97.50;;;;;;5029887;28;20094;-75
2022/08/31 02:26:22;;;;;;;4.30;1.40;;;16.00;97.40;;;;;;4993473;28;1025445;-74
2022/08/31 02:28:48;;;;;;;1.48;1.13;;;16.00;97.50;;;;;;5028737;28;20049;-75
2022/08/31 02:31:13;;;;;;;2.58;1.58;;;16.00;97.40;;;;;;5030807;28;20022;-75
2022/08/31 02:33:39;;;;;;;5.65;2.65;;;16.00;97.40;;;;;;5030538;28;20017;-75
2022/08/31 02:36:05;;;;;;;1.90;1.23;;;16.00;97.30;;;;;;5031141;28;20543;-75
2022/08/31 02:38:33;;;;;;;4.10;1.30;;;16.00;97.30;;;;;;5030577;28;20026;-74
2022/08/31 02:40:59;;;;;;;2.47;1.55;;;15.90;97.40;;;;;;5030954;28;20069;-75
2022/08/31 02:43:24;;;;;;;1.23;0.98;;;15.80;97.20;;;;;;5030075;28;20021;-75
2022/08/31 02:45:50;;;;;;;3.80;1.58;;;15.90;97.20;;;;;;5030979;28;20079;-75
2022/08/31 02:48:15;;;;;;;1.83;1.00;;;15.90;97.20;;;;;;5030925;28;20033;-75
2022/08/31 02:50:44;;;;;;;2.20;1.40;;;15.80;97.20;;;;;;5030700;28;20136;-75
2022/08/31 02:53:11;;;;;;;3.65;1.60;;;15.80;97.40;;;;;;5030892;28;20022;-74
2022/08/31 02:55:37;;;;;;;3.85;1.20;;;15.80;97.40;;;;;;5030407;28;20156;-75
2022/08/31 02:58:03;;;;;;;1.65;1.05;;;15.80;97.30;;;;;;5030351;28;20092;-75
2022/08/31 03:00:29;;;;;;;2.17;1.27;;;15.70;97.40;;;;;;5029845;28;20061;-75
2022/08/31 03:02:55;;;;;;;3.08;1.42;;;15.60;97.30;;;;;;5030792;28;20064;-75
2022/08/31 03:05:21;;;;;;;1.88;1.27;;;15.60;97.20;;;;;;5030340;28;20057;-75
2022/08/31 03:07:51;;;;;;;3.25;1.42;;;15.70;97.30;;;;;;5030220;28;20017;-74
2022/08/31 03:10:20;;;;;;;2.60;1.17;;;15.60;96.70;;;;;;5030245;28;20045;-74
2022/08/31 03:12:47;;;;;;;2.35;1.55;;;15.70;97.40;;;;;;5029449;28;20021;-75
2022/08/31 03:15:13;;;;;;;5.03;2.33;;;15.50;97.30;;;;;;5030298;28;20045;-75
2022/08/31 03:17:39;;;;;;;1.30;1.02;;;15.40;97.20;;;;;;5026301;28;20021;-75
2022/08/31 03:20:06;;;;;;;2.08;0.95;;;15.60;97.30;;;;;;5030473;28;20029;-75
2022/08/31 03:22:33;;;;;;;3.35;1.75;;;15.40;97.20;;;;;;5025836;28;20103;-75
2022/08/31 03:24:58;;;;;;;3.45;0.80;;;15.50;97.40;;;;;;5029708;28;20048;-75
2022/08/31 03:27:25;;;;;;;3.70;1.13;;;15.40;97.20;;;;;;5028833;28;20485;-75
2022/08/31 03:29:51;;;;;;;3.60;0.90;;;15.30;97.30;;;;;;5029420;28;20128;-75
2022/08/31 03:32:18;;;;;;;3.53;1.40;;;15.60;97.30;;;;;;5029118;28;20037;-75
2022/08/31 03:34:43;;;;;;;3.03;1.15;;;15.30;97.00;;;;;;5029847;28;20041;-75
2022/08/31 03:37:09;;;;;;;1.35;0.90;;;15.30;97.00;;;;;;5029782;28;20045;-74
2022/08/31 03:39:34;;;;;;;1.85;1.08;;;15.20;96.80;;;;;;5030065;28;20033;-74
2022/08/31 03:42:00;;;;;;;1.73;1.00;;;15.30;97.00;;;;;;5029130;28;20116;-75
2022/08/31 03:44:25;;;;;;;2.75;1.20;;;15.30;96.90;;;;;;5029631;28;20025;-74
2022/08/31 03:46:54;;;;;;;2.97;0.88;;;15.20;96.90;;;;;;5029887;28;20029;-75
2022/08/31 03:49:23;;;;;;;1.25;0.90;;;15.20;96.90;;;;;;5029683;28;20475;-75
2022/08/31 03:51:48;;;;;;;1.10;0.82;;;15.20;96.80;;;;;;5029476;28;20022;-75
2022/08/31 03:54:14;;;;;;;1.63;0.90;;;15.30;96.70;;;;;;5027103;28;20030;-74
2022/08/31 03:56:40;;;;;;;1.40;1.05;;;15.20;96.70;;;;;;5028968;28;20029;-75
2022/08/31 03:59:06;;;;;;;3.35;1.17;;;15.30;96.70;;;;;;5028023;28;20116;-75
2022/08/31 04:01:34;;;;;;;2.10;1.00;;;15.30;96.60;;;;;;5029358;28;20612;-74
2022/08/31 04:04:00;;;;;;;1.50;1.00;;;15.20;96.80;;;;;;5029466;28;20090;-75
2022/08/31 04:06:25;;;;;;;4.78;1.00;;;15.20;96.50;;;;;;5029037;28;20038;-74
2022/08/31 04:08:51;;;;;;;1.90;1.10;;;15.20;96.50;;;;;;5023599;28;20034;-75
2022/08/31 04:11:18;;;;;;;2.03;1.23;;;15.20;96.50;;;;;;5028689;28;20132;-75
2022/08/31 04:13:44;;;;;;;3.72;0.82;;;15.20;96.60;;;;;;5024872;28;20044;-74
2022/08/31 04:16:12;;;;;;;1.95;1.15;;;15.10;96.50;;;;;;5029042;28;20246;-75
2022/08/31 04:18:39;;;;;;;3.95;1.00;;;15.10;96.60;;;;;;5028193;28;20033;-75
2022/08/31 04:21:13;;;;;;;1.88;0.80;;;15.10;96.60;;;;;;5027496;28;20036;-75
2022/08/31 04:23:39;;;;;;;2.65;1.10;;;15.10;96.80;;;;;;5027829;28;20009;-75
2022/08/31 04:26:09;;;;;;;1.00;0.70;;;15.00;96.40;;;;;;5028776;28;20383;-74
2022/08/31 04:28:35;;;;;;;1.63;0.98;;;15.10;96.50;;;;;;5028984;28;20045;-75
2022/08/31 04:31:07;;;;;;;1.48;0.93;;;15.00;96.20;;;;;;5028223;28;20028;-75
2022/08/31 04:33:34;;;;;;;1.50;1.08;;;15.00;96.60;;;;;;5028709;28;20057;-75
2022/08/31 04:36:03;;;;;;;2.00;0.82;;;15.10;96.20;;;;;;5029449;28;20489;-75
2022/08/31 04:38:30;;;;;;;1.25;0.77;;;15.00;96.20;;;;;;5028251;28;20109;-75
2022/08/31 04:40:55;;;;;;;5.45;1.40;;;15.00;96.10;;;;;;5029364;28;20014;-75
2022/08/31 04:43:21;;;;;;;1.60;0.85;;;14.80;96.10;;;;;;5029272;28;20040;-74
2022/08/31 04:45:46;;;;;;;1.48;0.88;;;14.70;96.10;;;;;;5029062;28;20423;-75
2022/08/31 04:48:12;;;;;;;1.67;0.88;;;14.80;96.10;;;;;;5029224;28;20025;-75
2022/08/31 04:50:37;;;;;;;4.25;0.93;;;14.80;96.10;;;;;;5029127;28;20025;-75
2022/08/31 04:53:03;;;;;;;3.03;0.70;;;14.90;96.20;;;;;;5028760;28;20097;-75
2022/08/31 04:55:28;;;;;;;2.20;1.10;;;14.90;96.10;;;;;;5028738;28;20049;-75
2022/08/31 04:57:54;;;;;;;1.05;0.95;;;14.90;96.10;;;;;;5029237;28;20470;-75
2022/08/31 05:00:20;;;;;;;1.85;0.85;;;14.80;96.10;;;;;;5028990;28;20025;-74
2022/08/31 05:02:46;;;;;;;1.13;0.60;;;14.80;96.00;;;;;;5028975;28;20017;-75
2022/08/31 05:05:11;;;;;;;2.53;1.08;;;14.80;95.90;;;;;;5028962;28;20048;-75
2022/08/31 05:07:37;;;;;;;2.17;0.88;;;14.80;95.90;;;;;;5028348;28;20033;-75
2022/08/31 05:10:03;;;;;;;4.22;0.85;;;14.80;95.80;;;;;;5027768;28;20037;-75
2022/08/31 05:12:29;;;;;;;4.35;0.82;;;14.70;95.70;;;;;;5028457;28;20026;-75
2022/08/31 05:14:55;;;;;;;1.65;0.93;;;14.70;95.80;;;;;;5029352;28;20429;-75
2022/08/31 05:17:21;;;;;;;3.75;1.17;;;14.70;95.80;;;;;;5028849;28;20025;-75
2022/08/31 05:19:47;;;;;;;2.63;0.90;;;14.70;95.50;;;;;;5027505;28;20017;-75
2022/08/31 05:22:13;;;;;;;2.10;0.55;;;14.70;95.50;;;;;;5028215;28;20030;-75
2022/08/31 05:24:38;;;;;;;1.88;0.75;;;14.70;95.50;;;;;;5028862;28;20020;-75
2022/08/31 05:27:05;;;;;;;1.92;0.80;;;14.70;95.50;;;;;;5028761;28;20045;-75
2022/08/31 05:29:30;;;;;;;0.80;0.60;;;14.60;95.40;;;;;;5028412;28;20030;-75
2022/08/31 05:31:56;;;;;;;1.63;0.55;;;14.70;95.40;;;;;;5028970;28;20029;-75
2022/08/31 05:34:22;;;;;;;3.50;0.55;;;14.60;95.30;;;;;;5028794;28;20048;-75
2022/08/31 05:36:53;;;;;;;2.10;0.75;;;14.60;95.40;;;;;;5027874;28;20056;-75
2022/08/31 05:39:19;;;;;;;0.73;0.45;;;14.70;95.70;;;;;;5028615;28;20033;-75
2022/08/31 05:41:46;;;;;;;3.35;0.70;;;14.70;95.30;;;;;;5028751;28;20047;-75
2022/08/31 05:44:12;;;;;;;2.58;0.80;;;14.80;95.20;;;;;;5028513;28;20467;-75
2022/08/31 05:46:39;;;;;;;1.50;0.68;;;14.70;95.20;;;;;;5028385;28;20026;-74
2022/08/31 05:49:06;;;;;;;2.92;0.68;;;14.70;95.10;;;;;;5027029;28;20124;-75
2022/08/31 05:51:32;;;;;;;1.52;0.73;;;14.70;95.10;;;;;;5022283;28;20037;-75
2022/08/31 05:53:59;;;;;;;1.60;0.60;;;14.70;94.90;;;;;;5031642;28;20029;-75
2022/08/31 05:56:24;;;;;;;2.70;0.60;;;14.80;94.90;;;;;;5031527;28;20501;-74
2022/08/31 05:58:51;;;;;;;2.50;0.70;;;14.70;94.60;;;;;;5030556;28;20021;-75
2022/08/31 06:01:18;;;;;;;2.28;1.02;;;14.70;94.70;;;;;;5031771;28;20150;-75
2022/08/31 06:03:44;;;;;;;2.05;0.63;;;14.90;94.60;;;;;;5031308;28;20025;-75
2022/08/31 06:06:10;;;;;;;2.35;0.57;;;14.80;94.60;;;;;;5031131;28;20033;-75
2022/08/31 06:08:38;;;;;;;5.35;0.77;;;14.80;94.60;;;;;;5021536;28;20049;-75
2022/08/31 06:11:04;;;;;;;3.92;0.85;;;14.90;94.60;;;;;;5020449;28;20026;-74
2022/08/31 06:13:30;;;;;;;2.15;0.70;;;14.90;94.40;;;;;;5026769;28;20445;-74
2022/08/31 06:15:56;;;;;;;9.50;1.35;;;15.00;94.40;;;;;;5030631;28;20075;-75
2022/08/31 06:18:22;;;;;;;1.52;0.60;;;15.00;94.30;;;;;;5031612;28;20083;-75
2022/08/31 06:20:48;;;;;;;2.78;0.82;;;15.00;94.30;;;;;;5030701;28;20029;-75
2022/08/31 06:23:15;;;;;;;1.80;0.50;;;15.00;94.20;;;;;;5031221;28;20041;-74
2022/08/31 06:25:41;;;;;;;2.13;0.70;;;15.00;94.30;;;;;;5031498;28;20446;-75
2022/08/31 06:28:07;;;;;;;3.35;0.98;;;15.00;94.30;;;;;;5031737;28;20351;-75
2022/08/31 06:30:38;;;;;;;1.80;0.75;;;14.90;94.20;;;;;;5030219;28;20076;-75
2022/08/31 06:33:05;;;;;;;1.80;0.60;;;15.00;94.60;;;;;;5031066;28;20036;-75
2022/08/31 06:35:31;;;;;;;0.90;0.65;;;15.00;94.30;;;;;;5030264;28;20032;-75
2022/08/31 06:37:56;;;;;;;2.22;0.70;;;14.90;94.20;;;;;;5031587;28;20390;-73
2022/08/31 06:40:24;;;;;;;0.88;0.60;;;15.00;94.20;;;;;;5031109;28;20029;-73
2022/08/31 06:42:50;;;;;;;0.93;0.40;;;15.00;94.20;;;;;;5031557;28;20037;-73
2022/08/31 06:45:16;;;;;;;1.15;0.60;;;15.10;94.20;;;;;;5031010;28;20022;-74
2022/08/31 06:47:41;;;;;;;4.97;1.00;;;15.10;94.10;;;;;;5031234;28;20041;-74
2022/08/31 06:50:08;;;;;;;3.65;0.98;;;15.10;94.20;;;;;;5030766;28;20362;-74
2022/08/31 06:52:33;;;;;;;1.35;0.93;;;15.10;94.20;;;;;;5030717;28;20028;-74
2022/08/31 06:54:59;;;;;;;1.38;0.70;;;15.30;94.20;;;;;;5031361;28;20347;-74
2022/08/31 06:57:25;;;;;;;7.82;0.93;;;15.10;94.30;;;;;;5030705;28;20041;-74
2022/08/31 06:59:52;;;;;;;2.42;1.00;;;15.10;94.30;;;;;;5030975;28;20022;-74
2022/08/31 07:02:18;;;;;;;1.33;0.90;;;15.10;94.50;;;;;;5030796;28;20033;-74
2022/08/31 07:04:44;;;;;;;6.28;0.60;;;15.10;94.50;;;;;;5029059;28;20083;-74
2022/08/31 07:07:10;;;;;;;1.02;0.70;;;15.10;94.40;;;;;;5030521;28;20033;-74
2022/08/31 07:09:36;;;;;;;2.67;0.90;;;15.10;94.50;;;;;;5030317;28;20048;-74
2022/08/31 07:12:03;;;;;;;0.85;0.60;;;15.20;94.50;;;;;;5031044;28;20059;-74
2022/08/31 07:14:28;;;;;;;3.60;0.70;;;15.30;94.50;;;;;;5030291;28;20033;-75
2022/08/31 07:16:55;;;;;;;1.85;1.15;;;15.50;94.40;;;;;;5031147;28;20117;-75
2022/08/31 07:19:21;;;;;;;2.45;0.90;;;15.50;94.60;;;;;;5030044;28;20084;-74
2022/08/31 07:21:53;;;;;;;1.20;0.57;;;15.90;94.30;;;;;;5030534;28;20028;-75
2022/08/31 07:24:22;;;;;;;2.25;0.80;;;15.80;93.60;;;;;;5030330;28;20025;-75
2022/08/31 07:26:52;;;;;;;3.22;0.80;;;16.00;94.20;;;;;;5030251;28;21138;-74
2022/08/31 07:29:19;;;;;;;1.33;0.88;;;16.00;94.00;;;;;;5030346;28;20094;-74
2022/08/31 07:31:46;;;;;;;4.38;0.73;;;16.10;94.00;;;;;;5030075;28;20025;-74
2022/08/31 07:34:22;;;;;;;1.55;0.93;;;16.10;94.00;;;;;;5029840;28;20040;-74
2022/08/31 07:42:22;;;;;;;3.03;1.05;;;16.20;93.60;;;;;;5030277;28;20087;-75
2022/08/31 07:44:50;;;;;;;1.38;0.98;;;16.30;94.20;;;;;;5030030;28;20422;-74
2022/08/31 07:47:18;;;;;;;4.90;1.05;;;16.40;94.00;;;;;;5029492;28;20017;-75
2022/08/31 07:49:47;;;;;;;1.70;0.80;;;16.50;93.80;;;;;;5029986;28;20041;-75
2022/08/31 07:52:22;;;;;;;1.77;0.88;;;16.60;93.90;;;;;;5029411;28;20028;-75
2022/08/31 07:54:49;;;;;;;2.15;0.98;;;16.70;94.10;;;;;;5029915;28;20390;-75
2022/08/31 07:57:17;;;;;;;2.08;1.20;;;16.80;93.80;;;;;;5029733;28;20426;-75
2022/08/31 07:59:45;;;;;;;1.88;1.00;;;17.10;93.80;;;;;;5030083;28;20037;-75
2022/08/31 08:02:11;;;;;;;1.77;1.00;;;17.10;93.60;;;;;;5029024;28;20116;-73
2022/08/31 08:04:41;;;;;;;2.60;0.98;;;17.20;93.40;;;;;;5029842;28;20597;-75
2022/08/31 08:07:07;;;;;;;1.48;0.90;;;17.40;93.40;;;;;;5029977;28;20042;-75
2022/08/31 08:09:33;;;;;;;4.57;0.90;;;17.50;93.40;;;;;;5029225;28;20045;-75
2022/08/31 08:12:05;;;;;;;1.30;0.77;;;17.60;93.30;;;;;;5028870;28;20459;-75
2022/08/31 08:14:33;;;;;;;2.38;0.80;;;18.00;93.30;;;;;;5029175;28;20033;-75
2022/08/31 08:16:59;;;;;;;1.92;0.93;;;18.00;93.20;;;;;;5029171;28;20018;-75
2022/08/31 08:19:24;;;;;;;4.57;1.38;;;18.00;92.70;;;;;;5029265;28;20497;-75
2022/08/31 08:21:50;;;;;;;1.67;1.00;;;18.20;92.60;;;;;;5029878;28;20025;-74
2022/08/31 08:24:16;;;;;;;1.45;0.60;;;18.30;92.50;;;;;;5029484;28;20025;-75
2022/08/31 08:26:45;;;;;;;2.08;0.70;;;18.30;92.30;;;;;;5029372;28;20053;-74
2022/08/31 08:29:11;;;;;;;6.03;0.90;;;18.40;92.40;;;;;;5029379;28;20045;-75
2022/08/31 08:31:37;;;;;;;2.42;1.00;;;18.40;91.70;;;;;;5028388;28;20184;-75
2022/08/31 08:34:03;;;;;;;2.15;0.70;;;18.50;91.80;;;;;;5029603;28;20061;-75
2022/08/31 08:36:34;;;;;;;3.35;1.00;;;18.50;91.70;;;;;;5029159;28;20074;-75
2022/08/31 08:39:02;;;;;;;5.10;1.13;;;18.60;92.00;;;;;;5029542;28;20029;-75
2022/08/31 08:41:30;;;;;;;2.28;1.15;;;18.50;91.70;;;;;;5028297;28;20029;-75
2022/08/31 08:43:59;;;;;;;1.67;0.90;;;18.50;91.70;;;;;;5029222;28;20053;-75
2022/08/31 08:46:49;;;;;;;5.03;1.13;;;18.40;91.80;;;;;;5028355;28;20033;-74
2022/08/31 08:49:45;;;;;;;1.65;1.10;;;18.50;91.40;;;;;;5028708;28;20117;-75
2022/08/31 08:52:29;;;;;;;2.25;0.90;;;18.50;91.30;;;;;;5027300;28;20030;-75
2022/08/31 08:55:00;;;;;;;2.00;1.30;;;18.50;92.20;;;;;;5029429;28;20536;-75
2022/08/31 08:57:30;;;;;;;5.00;1.17;;;18.70;91.90;;;;;;5028586;28;20029;-74
2022/08/31 08:59:57;;;;;;;1.35;1.00;;;18.80;91.70;;;;;;5028900;28;20021;-75
2022/08/31 09:02:31;;;;;;;3.25;1.10;;;19.10;91.50;;;;;;5028549;28;20049;-75
2022/08/31 09:05:33;;;;;;;4.65;1.08;;;19.30;91.40;;;;;;5029179;28;20022;-75
2022/08/31 09:08:42;;;;;;;2.00;0.80;;;19.40;90.40;;;;;;5029251;28;20014;-75
2022/08/31 09:11:08;;;;;;;4.75;1.20;;;19.40;90.40;;;;;;5027756;28;20045;-74
2022/08/31 09:14:06;;;;;;;6.05;1.27;;;19.50;90.50;;;;;;5028111;28;20140;-75
2022/08/31 09:17:00;;;;;;;2.00;0.98;;;19.50;90.30;;;;;;5015007;28;20471;-75
2022/08/31 09:19:26;;;;;;;3.30;1.00;;;19.40;90.30;;;;;;5028678;28;20052;-75
2022/08/31 09:21:56;;;;;;;1.30;0.95;;;19.40;90.70;;;;;;5028976;28;20068;-75
2022/08/31 09:24:28;;;;;;;2.70;0.90;;;19.30;91.10;;;;;;5027722;28;20522;-75
2022/08/31 09:27:18;;;;;;;2.50;0.77;;;20.30;91.50;;;;;;5028960;28;20121;-75
2022/08/31 09:29:55;;;;;;;3.65;0.82;;;19.40;90.70;;;;;;5032166;28;20103;-75
2022/08/31 09:32:23;;;;;;;2.80;0.70;;;19.60;91.20;;;;;;5019039;28;20022;-75
2022/08/31 09:35:05;;;;;;;4.30;1.00;;;20.70;91.10;;;;;;5032964;28;20029;-75
2022/08/31 09:37:40;;;;;;;2.47;1.25;;;20.00;90.00;;;;;;5019549;28;20022;-75
2022/08/31 09:40:16;;;;;;;1.33;0.73;;;20.20;90.30;;;;;;5032774;28;20025;-75
2022/08/31 09:42:46;;;;;;;1.67;0.75;;;20.20;89.20;;;;;;5030565;28;20112;-75
2022/08/31 09:45:34;;;;;;;2.63;0.75;;;20.20;90.10;;;;;;5032384;28;20104;-75
2022/08/31 09:48:02;;;;;;;4.90;1.58;;;20.30;90.20;;;;;;5032878;28;20401;-75
2022/08/31 09:50:38;;;;;;;6.45;1.23;;;20.40;88.70;;;;;;5031860;28;20049;-75
2022/08/31 09:56:14;;;;;;;1.92;0.80;;;20.60;87.30;;;;;;5032423;28;20383;-75
2022/08/31 09:58:44;;;;;;;4.10;0.90;;;20.70;87.30;;;;;;5031857;28;20017;-74
2022/08/31 10:01:20;;;;;;;1.77;0.60;;;20.70;87.90;;;;;;5032265;28;20501;-74
2022/08/31 10:03:47;;;;;;;3.92;0.82;;;20.90;85.70;;;;;;5032594;28;20080;-74
2022/08/31 10:06:45;;;;;;;3.78;0.90;;;21.10;87.00;;;;;;5031933;28;20049;-74
2022/08/31 10:09:28;;;;;;;3.38;1.08;;;21.10;84.80;;;;;;5023280;28;20046;-74
2022/08/31 10:11:58;;;;;;;2.85;1.30;;;21.20;84.20;;;;;;5031911;28;20022;-74
2022/08/31 10:14:37;;;;;;;3.08;1.10;;;21.30;85.30;;;;;;5031810;28;20025;-74
2022/08/31 10:17:14;;;;;;;2.25;0.90;;;21.20;84.90;;;;;;5032374;28;20471;-74
2022/08/31 10:19:56;;;;;;;5.13;0.95;;;21.20;85.00;;;;;;5032026;28;20053;-74
2022/08/31 10:22:40;;;;;;;1.85;0.70;;;21.20;85.40;;;;;;5031807;28;20112;-75
2022/08/31 10:25:37;;;;;;;0.98;0.90;;;21.50;85.30;;;;;;5029003;28;20029;-75
2022/08/31 10:28:14;;;;;;;2.67;1.30;;;21.30;82.70;;;;;;5031193;28;20049;-74
2022/08/31 10:30:58;;;;;;;2.45;0.80;;;21.30;82.40;;;;;;5018655;28;20064;-74
2022/08/31 10:36:26;;;;;;;2.17;1.20;;;21.60;84.30;;;;;;5031732;28;20072;-75
2022/08/31 10:38:55;;;;;;;1.52;0.80;;;21.50;83.30;;;;;;5031169;28;20114;-75
2022/08/31 10:41:29;;;;;;;3.35;1.15;;;21.60;83.40;;;;;;5031295;28;20401;-75
2022/08/31 10:44:03;;;;;;;5.50;1.52;;;21.50;83.20;;;;;;5031616;28;20021;-74
2022/08/31 10:46:34;;;;;;;;;;;21.30;81.70;;;;;;5031772;28;20033;-75
2022/08/31 10:49:02;;;;;;;2.53;1.10;;;21.40;83.80;;;;;;5031492;28;20227;-75
2022/08/31 10:51:41;;;;;;;1.77;0.95;;;21.50;83.30;;;;;;5031173;28;20025;-75
2022/08/31 10:54:17;;;;;;;2.58;1.05;;;21.60;83.40;;;;;;5031560;28;20524;-74
2022/08/31 10:57:28;;;;;;;3.10;1.23;;;21.80;82.90;;;;;;5031229;28;20104;-75
2022/08/31 11:00:47;;;;;;;3.55;1.10;;;21.90;80.80;;;;;;5020897;28;20030;-74
2022/08/31 11:03:33;;;;;;;1.77;0.82;;;22.00;80.30;;;;;;4978299;28;20042;-75
2022/08/31 11:06:37;;;;;;;3.92;1.33;;;22.10;80.20;;;;;;4989653;28;20027;-74
2022/08/31 11:09:20;;;;;;;2.08;1.10;;;22.00;80.30;;;;;;4989421;28;20109;-74
2022/08/31 11:11:57;;;;;;;3.03;1.05;;;22.10;81.80;;;;;;4989164;28;20434;-75
2022/08/31 11:14:57;;;;;;;2.22;1.10;;;22.20;81.30;;;;;;4989213;28;20057;-74
2022/08/31 11:17:22;;;;;;;1.60;1.13;;;22.30;79.40;;;;;;4989375;28;20054;-74
2022/08/31 11:20:08;;;;;;;1.80;1.08;;;22.10;80.00;;;;;;4972897;28;20431;-74
2022/08/31 11:23:00;;;;;;;2.53;1.02;;;22.20;79.30;;;;;;4989071;28;20066;-75
2022/08/31 11:25:50;;;;;;;2.28;1.17;;;22.20;79.40;;;;;;4988311;28;20157;-75
2022/08/31 11:28:27;;;;;;;3.80;1.05;;;22.40;79.60;;;;;;4988855;28;20046;-75
2022/08/31 11:30:54;;;;;;;3.92;0.85;;;22.20;80.40;;;;;;4989361;28;20050;-75
2022/08/31 11:33:26;;;;;;;3.00;1.42;;;22.20;80.50;;;;;;5002535;28;20041;-75
2022/08/31 11:35:59;;;;;;;3.60;0.80;;;22.20;80.50;;;;;;5031005;28;20216;-74
2022/08/31 11:39:00;;;;;;;0.90;0.68;;;22.10;80.50;;;;;;5030192;28;20021;-74
2022/08/31 11:41:45;;;;;;;8.40;1.20;;;22.10;79.80;;;;;;5030393;28;20025;-74
2022/08/31 11:44:29;;;;;;;2.55;0.80;;;22.20;81.60;;;;;;5030297;28;20079;-74
2022/08/31 11:47:25;;;;;;;2.88;0.90;;;22.10;80.90;;;;;;5030356;28;20048;-75
2022/08/31 11:49:54;;;;;;;2.25;0.88;;;22.40;79.00;;;;;;5030295;28;20041;-75
2022/08/31 11:52:20;;;;;;;1.75;1.00;;;22.40;79.70;;;;;;5030153;28;20022;-75
2022/08/31 11:54:47;;;;;;;2.00;1.27;;;22.40;79.60;;;;;;5029747;28;20033;-74
2022/08/31 11:57:19;;;;;;;2.30;1.00;;;22.50;79.50;;;;;;5029997;28;20021;-74
2022/08/31 11:59:46;;;;;;;4.53;0.95;;;22.70;80.10;;;;;;5030129;28;20485;-75
2022/08/31 12:02:21;;;;;;;3.30;1.08;;;22.60;79.20;;;;;;5029733;28;20442;-74
2022/08/31 12:04:56;;;;;;;3.00;0.80;;;22.80;77.90;;;;;;5029989;28;20029;-75
2022/08/31 12:07:29;;;;;;;2.75;0.88;;;22.80;77.60;;;;;;5029681;28;20022;-74
2022/08/31 12:09:59;;;;;;;1.52;0.80;;;22.60;79.40;;;;;;5028521;28;20467;-75
2022/08/31 12:12:47;;;;;;;2.08;0.70;;;22.70;79.00;;;;;;5029250;28;20022;-75
2022/08/31 12:15:50;;;;;;;3.55;0.90;;;22.70;76.50;;;;;;5027823;28;20037;-75
2022/08/31 12:18:37;;;;;;;2.77;1.00;;;22.80;77.60;;;;;;5016431;28;20021;-75
2022/08/31 12:24:27;;;;;;;1.95;0.90;;;22.80;76.90;;;;;;5029280;28;20373;-74
2022/08/31 12:27:18;;;;;;;1.58;0.80;;;22.90;76.70;;;;;;5029546;28;20405;-74
2022/08/31 12:29:45;;;;;;;5.20;1.55;;;22.90;76.40;;;;;;5029627;28;20445;-75
2022/08/31 12:32:34;;;;;;;1.77;1.55;;;22.90;77.20;;;;;;5028923;28;20025;-75
2022/08/31 12:35:12;;;;;;;2.55;0.85;;;23.00;76.20;;;;;;5029772;28;20029;-75
2022/08/31 12:37:39;;;;;;;4.60;0.70;;;23.60;78.40;;;;;;5027442;28;20537;-75
2022/08/31 12:40:19;;;;;;;2.05;1.23;;;22.80;77.60;;;;;;5029668;28;20025;-75
2022/08/31 12:42:50;;;;;;;2.67;0.80;;;22.80;76.70;;;;;;5017498;28;20025;-74
2022/08/31 12:45:17;;;;;;;2.45;0.90;;;22.80;77.40;;;;;;5029239;28;20104;-75
2022/08/31 12:47:58;;;;;;;1.98;0.93;;;23.50;77.70;;;;;;5029120;28;20036;-75
2022/08/31 12:50:55;;;;;;;4.80;1.08;;;23.00;75.90;;;;;;5027457;28;20137;-75
2022/08/31 12:53:50;;;;;;;1.90;1.00;;;23.20;77.70;;;;;;5028150;28;20041;-74
2022/08/31 12:57:00;;;;;;;2.67;0.70;;;23.10;76.20;;;;;;5016605;28;20037;-75
2022/08/31 12:59:31;;;;;;;1.20;0.50;;;23.20;75.70;;;;;;5018215;28;20044;-74
2022/08/31 13:01:59;;;;;;;3.15;0.95;;;23.20;75.20;;;;;;5031566;28;20036;-75
2022/08/31 13:04:25;;;;;;;4.35;1.35;;;23.20;76.50;;;;;;5031627;28;20032;-74
2022/08/31 13:06:51;;;;;;;7.35;0.88;;;23.40;76.30;;;;;;5033336;28;20026;-75
2022/08/31 13:09:34;;;;;;;1.60;0.80;;;24.20;76.20;;;;;;5032830;28;20037;-74
2022/08/31 13:12:00;;;;;;;2.53;1.00;;;23.50;76.60;;;;;;5032336;28;20120;-74
2022/08/31 13:14:39;;;;;;;2.83;1.38;;;23.60;75.70;;;;;;5032870;28;20029;-74
2022/08/31 13:17:16;;;;;;;5.18;1.45;;;23.60;75.30;;;;;;5033341;28;20026;-74
2022/08/31 13:19:50;;;;;;;2.80;1.25;;;23.60;75.20;;;;;;5033030;28;20044;-74
2022/08/31 13:22:41;;;;;;;2.60;1.17;;;23.70;75.30;;;;;;5032652;28;20075;-74
2022/08/31 13:25:32;;;;;;;0.95;0.73;;;23.70;73.60;;;;;;5030180;28;20374;-74
2022/08/31 13:27:57;;;;;;;1.85;0.90;;;23.80;73.50;;;;;;5033277;28;20046;-74